Latest Weather Observations for Smithton

IDT60801

Issued at 11:01 pm EST Monday 6 July 2015 (issued every 30 minutes, with the page automatically refreshed every 10 minutes)

About weather observations | Map of weather stations | Latest weather observations for TAS | Other Formats
Station Details ID: 091292 Name: SMITHTON AERODROME Lat: -40.83 Lon: 145.08 Height: 7.5 m
Data from the previous 72 hours. | See also: Recent months at Smithton
Date/Time
EST
Temp
°C
App
Temp
°C
Dew
Point
Rel
Hum
%
Delta-T
°C
Wind Press
QNH
hPa
Press
MSL
hPa
Rain
since 9 am
mm
Dir
 
Spd
km/h
Gust
km/h
Spd
kts
Gust
kts
06/11:00pm 7.4 2.9 2.1 69 2.2 E 15 26 8 14 1020.0 - 0.0
06/10:30pm 7.6 3.9 2.5 70 2.1 ESE 11 17 6 9 1019.8 - 0.0
06/10:00pm 7.8 3.5 3.5 74 1.8 ESE 15 22 8 12 1019.5 - 0.0
06/09:30pm 8.1 2.9 3.8 74 1.9 E 20 26 11 14 1019.0 - 0.0
06/09:00pm 8.4 3.3 4.0 74 1.9 E 20 32 11 17 1018.5 1018.5 0.0
06/08:30pm 8.8 3.4 4.6 75 1.9 E 22 35 12 19 1018.2 - 0.0
06/08:00pm 8.9 4.0 4.9 76 1.8 E 20 28 11 15 1017.7 - 0.0
06/07:30pm 9.4 3.9 6.1 80 1.5 E 24 33 13 18 1017.4 - 0.0
06/07:00pm 9.6 5.1 7.0 84 1.2 E 20 32 11 17 1017.1 - 0.0
06/06:30pm 9.6 4.4 7.2 85 1.1 ENE 24 35 13 19 1016.6 - 0.0
06/06:00pm 9.4 4.2 7.2 86 1.0 ENE 24 32 13 17 1016.2 1016.2 0.0
06/05:30pm 9.3 5.0 7.1 86 1.0 E 19 24 10 13 1015.9 - 0.0
06/05:00pm 9.4 5.1 7.2 86 1.0 E 19 26 10 14 1015.8 - 0.0
06/04:30pm 9.7 5.5 7.5 86 1.0 E 19 26 10 14 1015.4 - 0.0
06/04:00pm 9.8 6.7 7.2 84 1.2 E 13 19 7 10 1015.3 - 0.0
06/03:30pm 9.7 4.8 7.0 83 1.3 E 22 30 12 16 1014.9 - 0.0
06/03:00pm 10.1 4.5 7.3 83 1.3 E 26 33 14 18 1014.5 1014.5 0.0
06/02:30pm 10.5 5.8 7.7 83 1.3 E 22 32 12 17 1014.0 - 0.0
06/02:00pm 10.6 5.6 8.0 84 1.3 ENE 24 32 13 17 1013.9 - 0.0
06/01:30pm 10.6 5.3 8.4 86 1.1 ENE 26 35 14 19 1013.9 - 0.0
06/01:00pm 10.6 6.1 8.4 86 1.1 ENE 22 32 12 17 1014.0 - 0.0
06/12:30pm 10.5 7.0 8.9 90 0.8 ENE 17 20 9 11 1014.2 - 0.0
06/12:00pm 10.4 7.0 9.0 91 0.7 E 17 20 9 11 1014.2 1014.2 0.0
06/11:30am 10.2 7.6 9.3 94 0.4 E 13 19 7 10 1014.6 - 0.0
06/11:00am 10.2 7.0 9.9 98 0.2 E 17 22 9 12 1014.6 - 0.0
06/10:30am 10.1 6.9 9.9 99 0.1 ENE 17 24 9 13 1014.4 - 0.0
06/10:00am 9.8 6.6 9.8 100 0.0 E 17 20 9 11 1014.1 - 0.0
06/09:30am 10.0 7.6 10.0 100 0.0 E 13 19 7 10 1013.9 - 0.0
06/09:00am 9.7 6.8 9.7 100 0.0 E 15 20 8 11 1013.5 1013.5 42.2
06/08:30am 9.5 7.3 9.5 100 0.0 ESE 11 13 6 7 1013.3 - 42.2
06/08:00am 9.5 6.6 9.5 100 0.0 E 15 20 8 11 1013.0 - 42.2
06/07:30am 9.4 6.8 9.4 100 0.0 E 13 17 7 9 1012.7 - 42.2
06/07:00am 9.6 7.1 9.6 100 0.0 ESE 13 17 7 9 1012.4 - 42.2
06/06:30am 9.6 7.1 9.6 100 0.0 E 13 17 7 9 1012.1 - 42.2
06/06:00am 9.8 6.9 9.8 100 0.0 ENE 15 22 8 12 1011.8 1011.8 42.2
06/05:30am 10.1 6.6 10.1 100 0.0 E 19 20 10 11 1012.1 - 42.2
06/05:00am 10.7 10.9 10.7 100 0.0 CALM 0 0 0 0 1012.0 - 42.0
06/04:30am 10.7 10.9 10.7 100 0.0 CALM 0 0 0 0 1012.0 - 41.6
06/04:00am 10.2 10.3 10.2 100 0.0 CALM 0 0 0 0 1012.0 - 41.6
06/03:30am 10.3 10.4 10.3 100 0.0 CALM 0 4 0 2 1011.9 - 41.6
06/03:00am 10.8 9.0 10.8 100 0.0 NW 11 15 6 8 1012.0 1012.0 41.6
06/02:30am 10.9 8.7 10.9 100 0.0 WNW 13 19 7 10 1012.3 - 41.6
06/02:00am 11.4 9.8 11.4 100 0.0 WNW 11 15 6 8 1012.1 - 41.6
06/01:30am 11.6 10.4 11.6 100 0.0 NW 9 11 5 6 1012.1 - 41.6
06/01:00am 11.9 9.6 11.9 100 0.0 WNW 15 20 8 11 1012.3 - 41.6
06/12:30am 11.7 10.5 11.7 100 0.0 NW 9 13 5 7 1012.6 - 40.8
06/12:00am 11.6 10.0 11.6 100 0.0 W 11 17 6 9 1012.7 1012.7 40.8
 
Date/Time
EST
Temp
°C
App
Temp
°C
Dew
Point
Rel
Hum
%
Delta-T
°C
Wind Press
QNH
hPa
Press
MSL
hPa
Rain
since 9 am
mm
Dir
 
Spd
km/h
Gust
km/h
Spd
kts
Gust
kts
05/11:30pm 12.3 10.2 12.3 100 0.0 WNW 15 20 8 11 1012.7 - 37.0
05/11:00pm 11.8 11.2 11.8 100 0.0 SW 6 15 3 8 1012.6 - 37.0
05/10:30pm 12.3 10.9 12.3 100 0.0 W 11 17 6 9 1012.7 - 35.4
05/10:00pm 12.3 8.8 12.3 100 0.0 NW 22 32 12 17 1012.7 - 33.6
05/09:30pm 11.9 9.6 11.9 100 0.0 NW 15 19 8 10 1012.9 - 33.6
05/09:00pm 12.0 9.4 12.0 100 0.0 NW 17 22 9 12 1013.1 1013.1 32.4
05/08:30pm 11.7 10.5 11.7 100 0.0 W 9 11 5 6 1013.2 - 30.4
05/08:00pm 11.9 10.4 11.9 100 0.0 WSW 11 19 6 10 1013.4 - 27.8
05/07:30pm 12.1 9.9 12.1 100 0.0 WNW 15 20 8 11 1013.3 - 25.0
05/07:00pm 11.8 11.2 11.8 100 0.0 WNW 6 9 3 5 1013.3 - 23.4
05/06:30pm 11.4 9.4 11.4 100 0.0 SW 13 17 7 9 1013.4 - 23.4
05/06:00pm 12.2 9.3 12.2 100 0.0 WNW 19 28 10 15 1013.0 1013.0 23.4
05/05:30pm 11.8 9.1 11.8 100 0.0 NW 17 22 9 12 1013.0 - 23.2
05/05:00pm 11.2 10.4 11.2 100 0.0 W 6 11 3 6 1013.1 - 23.2
05/04:30pm 11.0 9.6 11.0 100 0.0 WNW 9 13 5 7 1013.1 - 23.0
05/04:00pm 11.1 7.9 11.1 100 0.0 WNW 19 24 10 13 1013.2 - 19.6
05/03:30pm 11.5 6.7 11.5 100 0.0 WSW 28 39 15 21 1013.1 - 15.2
05/03:00pm 12.0 8.8 12.0 100 0.0 NW 20 24 11 13 1012.6 1012.6 12.0
05/02:30pm 11.5 8.4 11.5 100 0.0 W 19 24 10 13 1013.0 - 10.6
05/02:00pm 11.7 6.0 11.7 100 0.0 W 33 46 18 25 1013.2 - 9.8
05/01:46pm 12.5 6.3 12.5 100 0.0 WNW 37 59 20 32 1013.1 - 9.2
05/01:30pm 13.5 9.3 13.5 100 0.0 WNW 28 37 15 20 1013.0 - 8.8
05/01:00pm 13.2 9.3 13.2 100 0.0 WNW 26 33 14 18 1013.2 - 8.8
05/12:30pm 12.7 9.0 12.7 100 0.0 WNW 24 32 13 17 1013.5 - 8.8
05/12:00pm 12.8 8.7 12.8 100 0.0 W 26 39 14 21 1013.9 1013.9 7.6
05/11:30am 12.4 9.0 12.4 100 0.0 W 22 30 12 16 1014.1 - 7.2
05/11:00am 12.4 9.0 12.4 100 0.0 W 22 35 12 19 1014.4 - 5.8
05/10:30am 12.2 8.7 12.2 100 0.0 W 22 30 12 16 1014.6 - 4.6
05/10:00am 12.1 7.1 12.1 100 0.0 W 30 39 16 21 1014.5 - 3.4
05/09:30am 12.3 7.3 12.3 100 0.0 W 30 43 16 23 1014.3 - 2.0
05/09:14am 12.1 7.1 12.1 100 0.0 WNW 30 52 16 28 1014.3 - 1.4
05/09:00am 12.2 7.9 12.2 100 0.0 WNW 26 39 14 21 1014.1 1014.1 16.4
05/08:30am 12.1 8.2 12.1 100 0.0 W 24 33 13 18 1014.0 - 15.8
05/08:00am 12.3 7.7 12.3 100 0.0 W 28 39 15 21 1013.8 - 15.6
05/07:30am 12.0 8.1 12.0 100 0.0 WNW 24 32 13 17 1013.7 - 15.4
05/07:10am 12.0 6.5 12.0 100 0.0 WNW 32 43 17 23 1013.6 - 14.6
05/07:00am 11.5 9.5 11.5 100 0.0 NNW 13 20 7 11 1013.5 - 12.6
05/06:30am 10.5 9.9 10.5 100 0.0 NNW 4 9 2 5 1014.1 - 9.8
05/06:00am 10.2 10.3 10.2 100 0.0 CALM 0 6 0 3 1014.2 1014.2 8.2
05/05:30am 9.3 8.0 9.3 100 0.0 W 6 7 3 4 1014.2 - 6.4
05/05:00am 9.2 7.9 9.2 100 0.0 W 6 7 3 4 1014.3 - 5.8
05/04:30am 9.2 8.3 9.2 100 0.0 WSW 4 7 2 4 1014.6 - 5.8
05/04:00am 8.9 8.7 8.9 100 0.0 CALM 0 0 0 0 1014.8 - 5.8
05/03:30am 9.2 9.0 9.2 100 0.0 CALM 0 0 0 0 1015.2 - 5.6
05/03:00am 9.4 8.9 9.4 100 0.0 WSW 2 9 1 5 1015.3 1015.3 5.0
05/02:30am 9.5 8.1 9.5 100 0.0 W 7 9 4 5 1015.4 - 3.4
05/02:00am 9.2 7.9 9.2 100 0.0 W 6 7 3 4 1015.5 - 1.6
05/01:30am 9.2 7.9 9.2 100 0.0 W 6 6 3 3 1015.5 - 1.4
05/01:00am 9.3 9.2 9.3 100 0.0 CALM 0 0 0 0 1015.9 - 1.4
05/12:30am 8.9 8.7 8.9 100 0.0 CALM 0 0 0 0 1016.1 - 1.4
05/12:00am 8.9 8.7 8.9 100 0.0 CALM 0 0 0 0 1016.3 1016.3 1.4
 
Date/Time
EST
Temp
°C
App
Temp
°C
Dew
Point
Rel
Hum
%
Delta-T
°C
Wind Press
QNH
hPa
Press
MSL
hPa
Rain
since 9 am
mm
Dir
 
Spd
km/h
Gust
km/h
Spd
kts
Gust
kts
04/11:30pm 9.0 7.6 9.0 100 0.0 W 6 7 3 4 1016.3 - 1.4
04/11:00pm 8.9 8.7 8.9 100 0.0 CALM 0 6 0 3 1016.5 - 1.2
04/10:30pm 9.0 7.5 9.0 100 0.0 W 7 9 4 5 1016.7 - 1.2
04/10:00pm 8.8 8.5 8.8 100 0.0 CALM 0 0 0 0 1016.8 - 1.2
04/09:30pm 8.7 7.3 8.7 100 0.0 W 6 7 3 4 1017.0 - 1.2
04/09:00pm 8.5 7.4 8.5 100 0.0 W 4 7 2 4 1016.8 1016.8 1.2
04/08:30pm 8.8 7.8 8.8 100 0.0 W 4 7 2 4 1017.0 - 1.2
04/08:00pm 8.5 6.8 8.5 100 0.0 W 7 9 4 5 1017.1 - 1.2
04/07:30pm 8.6 7.0 8.6 100 0.0 W 7 9 4 5 1017.0 - 1.2
04/07:00pm 8.9 6.6 8.9 100 0.0 W 11 11 6 6 1016.8 - 1.2
04/06:30pm 9.3 7.1 9.3 100 0.0 W 11 13 6 7 1016.6 - 1.2
04/06:00pm 9.5 7.3 9.4 99 0.0 WSW 11 13 6 7 1016.3 1016.3 1.2
04/05:30pm 10.4 7.3 10.2 99 0.1 SW 17 19 9 10 1016.1 - 1.2
04/05:00pm 11.0 8.5 11.0 100 0.0 SW 15 17 8 9 1016.0 - 1.2
04/04:30pm 11.4 9.3 11.2 99 0.1 SW 13 15 7 8 1016.1 - 1.2
04/04:00pm 11.5 8.7 11.3 99 0.1 SW 17 20 9 11 1015.9 - 1.2
04/03:30pm 11.9 8.8 11.7 99 0.1 SW 19 24 10 13 1015.9 - 1.2
04/03:00pm 12.1 8.9 11.8 98 0.2 SW 20 28 11 15 1015.6 1015.6 1.2
04/02:30pm 12.3 9.3 12.1 99 0.1 SW 19 26 10 14 1015.3 - 1.2
04/02:00pm 12.3 8.8 12.1 99 0.1 SW 22 28 12 15 1015.3 - 1.0
04/01:30pm 12.4 9.3 12.1 98 0.2 WSW 20 30 11 16 1015.3 - 1.0
04/01:00pm 12.4 9.3 12.1 98 0.2 WSW 20 26 11 14 1015.6 - 1.0
04/12:30pm 12.5 9.4 12.3 99 0.1 SW 20 28 11 15 1015.7 - 1.0
04/12:00pm 13.1 10.3 13.1 100 0.0 WSW 20 26 11 14 1015.8 1015.8 1.0
04/11:30am 12.6 9.6 12.6 100 0.0 WSW 20 28 11 15 1016.1 - 1.0
04/11:00am 11.9 7.9 11.9 100 0.0 WSW 24 32 13 17 1016.3 - 1.0
04/10:30am 12.2 7.9 12.2 100 0.0 WSW 26 33 14 18 1016.3 - 0.8
04/10:00am 12.7 7.8 12.5 99 0.1 W 30 39 16 21 1015.8 - 0.2
04/09:30am 12.1 8.6 12.1 100 0.0 W 22 28 12 15 1015.9 - 0.2
04/09:00am 12.0 8.1 12.0 100 0.0 W 24 32 13 17 1015.7 1015.7 2.4
04/08:30am 11.9 8.3 11.9 100 0.0 W 22 32 12 17 1015.7 - 2.4
04/08:00am 12.0 8.4 11.7 98 0.2 W 22 32 12 17 1015.5 - 2.4
04/07:30am 12.1 8.4 11.6 97 0.3 W 22 30 12 16 1015.4 - 2.4
04/07:00am 12.1 8.5 11.9 99 0.1 W 22 30 12 16 1015.3 - 2.4
04/06:30am 12.2 7.9 12.0 99 0.1 W 26 39 14 21 1015.3 - 2.4
04/06:00am 12.2 8.3 12.0 99 0.1 W 24 32 13 17 1015.0 1015.0 2.4
04/05:30am 12.3 7.7 12.3 100 0.0 W 28 39 15 21 1014.9 - 2.4
04/05:00am 12.1 7.4 12.1 100 0.0 WNW 28 41 15 22 1014.9 - 2.2
04/04:30am 11.8 7.0 11.8 100 0.0 WNW 28 39 15 21 1015.0 - 2.0
04/04:00am 11.4 6.9 11.4 100 0.0 WNW 26 43 14 23 1015.3 - 2.0
04/03:30am 11.2 8.0 11.2 100 0.0 WNW 19 28 10 15 1015.7 - 1.2
04/03:00am 10.9 7.6 10.9 100 0.0 WNW 19 24 10 13 1016.2 1016.2 1.0
04/02:30am 10.8 7.2 10.6 99 0.1 WNW 20 26 11 14 1016.5 - 0.8
04/02:00am 10.9 7.3 10.7 99 0.1 WNW 20 26 11 14 1016.8 - 0.8
04/01:30am 10.8 7.8 10.6 99 0.1 WNW 17 37 9 20 1016.9 - 0.8
04/01:00am 10.3 7.5 10.1 99 0.1 WNW 15 19 8 10 1017.3 - 0.8
04/12:30am 9.7 6.8 9.6 99 0.0 WNW 15 17 8 9 1017.6 - 0.8
04/12:00am 9.4 6.8 9.3 99 0.0 WNW 13 17 7 9 1018.2 1018.2 0.6
 
Date/Time
EST
Temp
°C
App
Temp
°C
Dew
Point
Rel
Hum
%
Delta-T
°C
Wind Press
QNH
hPa
Press
MSL
hPa
Rain
since 9 am
mm
Dir
 
Spd
km/h
Gust
km/h
Spd
kts
Gust
kts
03/11:30pm 9.4 6.3 8.9 97 0.2 NW 15 24 8 13 1018.5 - 0.6

Other Formats:

Comma delimited format used in spreadsheet applications
http://www.bom.gov.au/fwo/IDT60801/IDT60801.94953.axf

JavaScript Object Notation format (JSON) in row-major order
http://www.bom.gov.au/fwo/IDT60801/IDT60801.94953.json